createdAt,value
2018-04-02T00:01:17.226Z,24.55
2018-04-02T00:03:44.359Z,26.77
2018-04-02T00:06:11.182Z,21.80
2018-04-02T00:08:38.015Z,26.77
2018-04-02T00:11:04.820Z,23.60
2018-04-02T00:13:31.939Z,23.27
2018-04-02T00:15:59.087Z,29.90
2018-04-02T00:18:25.900Z,24.37
2018-04-02T00:20:52.697Z,22.25
2018-04-02T00:23:19.498Z,29.42
2018-04-02T00:25:46.509Z,23.07
2018-04-02T00:28:13.613Z,28.25
2018-04-02T00:30:40.422Z,31.58
2018-04-02T00:33:07.493Z,29.67
2018-04-02T00:35:34.342Z,26.10
2018-04-02T00:38:01.391Z,28.62
2018-04-02T00:40:28.542Z,26.62
2018-04-02T00:42:55.686Z,27.02
2018-04-02T00:45:22.511Z,24.87
2018-04-02T00:47:49.578Z,30.20
2018-04-02T00:50:16.734Z,30.08
2018-04-02T00:52:43.549Z,27.25
2018-04-02T00:55:10.388Z,25.55
2018-04-02T00:57:37.467Z,27.85
2018-04-02T01:00:04.303Z,29.80
2018-04-02T01:02:31.139Z,26.85
2018-04-02T01:04:57.963Z,24.98
2018-04-02T01:07:25.150Z,28.27
2018-04-02T01:09:51.938Z,26.50
2018-04-02T01:12:18.792Z,24.83
2018-04-02T01:14:45.578Z,24.58
2018-04-02T01:17:12.419Z,26.85
2018-04-02T01:19:39.462Z,28.15
2018-04-02T01:22:06.614Z,30.88
2018-04-02T01:24:33.662Z,23.98
2018-04-02T01:27:00.815Z,29.58
2018-04-02T01:29:27.967Z,23.02
2018-04-02T01:31:54.839Z,23.67
2018-04-02T01:34:21.632Z,29.95
2018-04-02T01:36:48.693Z,28.45
2018-04-02T01:39:15.535Z,22.97
2018-04-02T01:41:42.322Z,23.60
2018-04-02T01:44:09.167Z,26.12
2018-04-02T01:46:35.987Z,27.92
2018-04-02T01:49:02.832Z,26.23
2018-04-02T01:51:29.627Z,28.23
2018-04-02T01:53:56.446Z,22.20
2018-04-02T01:56:23.541Z,22.23
2018-04-02T01:58:50.396Z,25.20
2018-04-02T02:01:17.211Z,24.83
2018-04-02T02:03:44.025Z,22.52
2018-04-02T02:06:10.843Z,23.85
2018-04-02T02:08:37.687Z,23.58
2018-04-02T02:11:04.469Z,25.75
2018-04-02T02:13:31.312Z,26.65
2018-04-02T02:15:58.395Z,26.67
2018-04-02T02:18:25.437Z,27.27
2018-04-02T02:20:52.594Z,29.10
2018-04-02T02:23:19.410Z,25.55
2018-04-02T02:25:46.486Z,25.65
2018-04-02T02:28:13.305Z,22.13
2018-04-02T02:30:40.144Z,25.52
2018-04-02T02:33:06.988Z,26.80
2018-04-02T02:35:33.773Z,27.55
2018-04-02T02:38:00.912Z,25.40
2018-04-02T02:40:27.951Z,21.55
2018-04-02T02:42:54.758Z,25.05
2018-04-02T02:45:21.855Z,24.80
2018-04-02T02:47:48.691Z,30.93
2018-04-02T02:50:15.511Z,25.17
2018-04-02T02:52:42.346Z,27.05
2018-04-02T02:55:09.163Z,26.90
2018-04-02T02:57:35.954Z,28.20
2018-04-02T03:00:03.120Z,31.42
2018-04-02T03:02:30.261Z,25.73
2018-04-02T03:04:57.115Z,29.67
2018-04-02T03:07:24.147Z,24.85
2018-04-02T03:09:50.999Z,28.80
2018-04-02T03:12:17.850Z,27.65
2018-04-02T03:14:44.657Z,27.33
2018-04-02T03:17:11.461Z,26.23
2018-04-02T03:19:38.282Z,31.62
2018-04-02T03:22:05.081Z,26.35
2018-04-02T03:24:31.945Z,30.50
2018-04-02T03:26:58.750Z,27.75
2018-04-02T03:29:25.554Z,33.95
2018-04-02T03:31:52.684Z,27.95
2018-04-02T03:34:19.499Z,30.08
2018-04-02T03:36:46.578Z,36.22
2018-04-02T03:39:13.386Z,31.00
2018-04-02T03:41:40.462Z,26.10
2018-04-02T03:44:07.619Z,29.70
2018-04-02T03:46:34.414Z,27.87
2018-04-02T03:49:01.506Z,28.50
2018-04-02T03:51:28.331Z,25.85
2018-04-02T03:53:55.366Z,26.92
2018-04-02T03:56:22.166Z,32.22
2018-04-02T03:58:49.291Z,26.12
2018-04-02T04:01:16.121Z,30.30
2018-04-02T04:03:42.960Z,34.63
2018-04-02T04:06:10.026Z,25.70
2018-04-02T04:08:37.175Z,32.88
2018-04-02T04:11:03.961Z,26.60
2018-04-02T04:13:31.063Z,30.90
2018-04-02T04:15:58.218Z,30.85
2018-04-02T04:18:25.071Z,34.53
2018-04-02T04:20:51.922Z,32.63
2018-04-02T04:23:18.682Z,32.85
2018-04-02T04:25:45.523Z,37.58
2018-04-02T04:28:12.343Z,40.88
2018-04-02T04:30:39.145Z,40.40
2018-04-02T04:33:05.938Z,32.30
2018-04-02T04:35:32.977Z,28.08
2018-04-02T04:37:59.777Z,29.60
2018-04-02T04:40:26.593Z,33.13
2018-04-02T04:42:53.388Z,26.45
2018-04-02T04:45:20.232Z,28.48
2018-04-02T04:47:47.029Z,26.10
2018-04-02T04:50:13.842Z,30.97
2018-04-02T04:52:40.641Z,30.83
2018-04-02T04:55:07.502Z,28.33
2018-04-02T04:57:34.285Z,27.85
2018-04-02T05:00:01.394Z,32.10
2018-04-02T05:02:28.437Z,29.73
2018-04-02T05:04:55.295Z,28.80
2018-04-02T05:07:22.094Z,30.58
2018-04-02T05:09:48.954Z,30.33
2018-04-02T05:12:15.767Z,25.47
2018-04-02T05:14:42.570Z,34.33
2018-04-02T05:17:09.394Z,26.87
2018-04-02T05:19:36.417Z,26.62
2018-04-02T05:22:03.210Z,31.73
2018-04-02T05:24:30.339Z,35.17
2018-04-02T05:26:57.381Z,28.42
2018-04-02T05:29:24.231Z,35.90
2018-04-02T05:31:51.014Z,32.33
2018-04-02T05:34:17.851Z,31.40
2018-04-02T05:36:44.633Z,34.25
2018-04-02T05:39:11.675Z,31.67
2018-04-02T05:41:38.470Z,34.90
2018-04-02T05:44:05.589Z,33.60
2018-04-02T05:46:32.475Z,28.42
2018-04-02T05:48:59.261Z,29.45
2018-04-02T05:51:26.115Z,30.10
2018-04-02T05:53:52.939Z,30.45
2018-04-02T05:56:19.744Z,30.62
2018-04-02T05:58:46.544Z,30.10
2018-04-02T06:01:13.379Z,28.60
2018-04-02T06:03:40.171Z,30.90
2018-04-02T06:06:07.227Z,28.25
2018-04-02T06:08:34.018Z,28.50
2018-04-02T06:11:00.826Z,30.57
2018-04-02T06:13:27.666Z,24.90
2018-04-02T06:15:54.515Z,23.80
2018-04-02T06:18:21.302Z,25.73
2018-04-02T06:20:48.449Z,22.08
2018-04-02T06:23:15.523Z,25.60
2018-04-02T06:25:42.357Z,20.95
2018-04-02T06:28:09.183Z,26.35
2018-04-02T06:30:36.335Z,23.73
2018-04-02T06:33:03.182Z,22.02
2018-04-02T06:35:30.010Z,21.42
2018-04-02T06:37:57.287Z,22.08
2018-04-02T06:40:24.342Z,22.92
2018-04-02T06:42:51.139Z,18.27
2018-04-02T06:45:17.943Z,21.33
2018-04-02T06:47:44.733Z,25.67
2018-04-02T06:50:11.592Z,27.33
2018-04-02T06:52:38.634Z,18.10
2018-04-02T06:55:05.526Z,15.85
2018-04-02T06:57:32.378Z,22.15
2018-04-02T06:59:59.470Z,17.55
2018-04-02T07:02:26.278Z,17.70
2018-04-02T07:04:53.085Z,16.92
2018-04-02T07:07:20.035Z,16.15
2018-04-02T07:09:46.951Z,13.95
2018-04-02T07:12:13.758Z,18.52
2018-04-02T07:14:40.557Z,15.40
2018-04-02T07:17:07.492Z,15.50
2018-04-02T07:19:34.325Z,13.48
2018-04-02T07:22:01.319Z,15.73
2018-04-02T07:24:28.279Z,15.25
2018-04-02T07:26:55.097Z,13.45
2018-04-02T07:29:22.215Z,13.82
2018-04-02T07:31:49.359Z,17.37
2018-04-02T07:34:16.198Z,15.25
2018-04-02T07:36:43.018Z,10.77
2018-04-02T07:39:09.797Z,15.57
2018-04-02T07:41:36.935Z,13.30
2018-04-02T07:44:03.978Z,10.20
2018-04-02T07:46:30.795Z,15.25
2018-04-02T07:48:57.886Z,9.33
2018-04-02T07:51:24.917Z,10.73
2018-04-02T07:53:51.759Z,40.83
2018-04-02T07:56:18.581Z,23.05
2018-04-02T07:58:46.552Z,11.45
2018-04-02T08:01:13.449Z,15.00
2018-04-02T08:03:40.249Z,10.55
2018-04-02T08:06:07.082Z,14.33
2018-04-02T08:08:33.908Z,10.93
2018-04-02T08:11:00.723Z,13.10
2018-04-02T08:13:27.533Z,10.88
2018-04-02T08:15:54.485Z,9.48
2018-04-02T08:18:21.656Z,8.80
2018-04-02T08:20:48.921Z,11.80
2018-04-02T08:23:15.875Z,9.63
2018-04-02T08:25:43.002Z,8.65
2018-04-02T08:28:09.794Z,10.57
2018-04-02T08:30:36.844Z,10.13
2018-04-02T08:33:04.427Z,7.90
2018-04-02T08:35:31.201Z,9.57
2018-04-02T08:37:58.327Z,10.65
2018-04-02T08:40:25.163Z,9.77
2018-04-02T08:42:51.972Z,12.50
2018-04-02T08:45:18.857Z,10.35
2018-04-02T08:47:45.671Z,6.75
2018-04-02T08:50:12.860Z,11.98
2018-04-02T08:52:39.705Z,11.80
2018-04-02T08:55:06.536Z,8.30
2018-04-02T08:57:33.387Z,6.20
2018-04-02T09:00:00.328Z,8.65
2018-04-02T09:02:27.151Z,6.18
2018-04-02T09:04:54.324Z,9.63
2018-04-02T09:07:21.193Z,7.18
2018-04-02T09:09:48.029Z,6.50
2018-04-02T09:12:15.114Z,9.52
2018-04-02T09:14:42.922Z,9.88
2018-04-02T09:17:09.815Z,6.80
2018-04-02T09:19:36.910Z,9.10
2018-04-02T09:22:03.719Z,7.20
2018-04-02T09:24:30.912Z,6.40
2018-04-02T09:26:58.060Z,7.70
2018-04-02T09:29:24.900Z,9.80
2018-04-02T09:31:51.783Z,6.78
2018-04-02T09:34:18.599Z,6.78
2018-04-02T09:36:45.435Z,7.83
2018-04-02T09:39:12.257Z,10.52
2018-04-02T09:41:39.120Z,9.00
2018-04-02T09:44:06.272Z,5.68
2018-04-02T09:46:33.120Z,7.05
2018-04-02T09:48:59.986Z,6.18
2018-04-02T09:51:26.804Z,7.90
2018-04-02T09:53:53.635Z,6.85
2018-04-02T09:56:20.473Z,6.95
2018-04-02T09:58:47.637Z,7.17
2018-04-02T10:01:14.451Z,6.78
2018-04-02T10:03:41.523Z,6.60
2018-04-02T10:06:08.382Z,9.20
2018-04-02T10:08:35.529Z,5.80
2018-04-02T10:11:02.347Z,4.85
2018-04-02T10:13:29.163Z,7.57
2018-04-02T10:15:56.011Z,6.80
2018-04-02T10:18:22.864Z,5.60
2018-04-02T10:20:49.683Z,8.00
2018-04-02T10:23:16.559Z,4.82
2018-04-02T10:25:43.408Z,7.32
2018-04-02T10:28:10.601Z,6.23
2018-04-02T10:30:37.432Z,6.57
2018-04-02T10:33:05.488Z,6.37
2018-04-02T10:35:32.638Z,7.60
2018-04-02T10:37:59.791Z,7.12
2018-04-02T10:40:26.941Z,6.85
2018-04-02T10:42:53.763Z,6.20
2018-04-02T10:45:20.620Z,5.60
2018-04-02T10:47:47.484Z,6.45
2018-04-02T10:50:14.369Z,6.50
2018-04-02T10:52:41.564Z,7.45
2018-04-02T10:55:08.420Z,6.82
2018-04-02T10:57:35.554Z,8.82
2018-04-02T11:00:02.421Z,7.57
2018-04-02T11:02:29.251Z,6.57
2018-04-02T11:04:56.067Z,9.35
2018-04-02T11:07:22.907Z,6.80
2018-04-02T11:09:49.717Z,9.07
2018-04-02T11:12:16.529Z,14.50
2018-04-02T11:14:43.369Z,11.65
2018-04-02T11:17:10.212Z,8.83
2018-04-02T11:19:37.457Z,8.57
2018-04-02T11:22:04.278Z,8.80
2018-04-02T11:24:31.448Z,10.95
2018-04-02T11:26:58.287Z,7.25
2018-04-02T11:29:25.141Z,9.93
2018-04-02T11:31:52.284Z,9.40
2018-04-02T11:34:19.129Z,6.07
2018-04-02T11:36:45.972Z,6.72
2018-04-02T11:39:12.824Z,7.85
2018-04-02T11:41:39.972Z,6.20
2018-04-02T11:44:06.795Z,7.80
2018-04-02T11:46:33.678Z,9.60
2018-04-02T11:49:00.534Z,10.25
2018-04-02T11:51:27.342Z,7.47
2018-04-02T11:53:54.183Z,9.73
2018-04-02T11:56:21.026Z,6.78
2018-04-02T11:58:47.858Z,5.20
2018-04-02T12:01:14.706Z,9.02
2018-04-02T12:03:41.539Z,5.87
2018-04-02T12:06:08.374Z,8.95
2018-04-02T12:08:35.220Z,6.70
2018-04-02T12:11:02.393Z,5.13
2018-04-02T12:13:29.266Z,5.12
2018-04-02T12:15:56.127Z,6.07
2018-04-02T12:18:23.224Z,7.68
2018-04-02T12:20:50.114Z,5.90
2018-04-02T12:23:17.220Z,8.80
2018-04-02T12:25:44.382Z,5.75
2018-04-02T12:28:11.528Z,6.80
2018-04-02T12:30:38.396Z,8.13
2018-04-02T12:33:05.254Z,5.20
2018-04-02T12:35:32.113Z,6.40
2018-04-02T12:37:59.195Z,6.15
2018-04-02T12:40:26.024Z,5.73
2018-04-02T12:42:52.906Z,4.70
2018-04-02T12:45:20.036Z,4.28
2018-04-02T12:47:46.900Z,4.20
2018-04-02T12:50:13.711Z,6.80
2018-04-02T12:52:40.774Z,5.60
2018-04-02T12:55:07.584Z,4.93
2018-04-02T12:57:34.439Z,5.07
2018-04-02T13:00:01.279Z,5.90
2018-04-02T13:02:28.351Z,5.20
2018-04-02T13:04:55.491Z,4.12
2018-04-02T13:07:22.380Z,8.25
2018-04-02T13:09:49.223Z,4.95
2018-04-02T13:12:16.064Z,4.53
2018-04-02T13:14:43.778Z,5.95
2018-04-02T13:17:10.591Z,4.00
2018-04-02T13:19:37.435Z,6.70
2018-04-02T13:22:04.332Z,9.07
2018-04-02T13:24:31.194Z,20.83
2018-04-02T13:26:58.431Z,5.70
2018-04-02T13:29:25.210Z,8.00
2018-04-02T13:31:52.142Z,5.43
2018-04-02T13:34:18.961Z,6.60
2018-04-02T13:36:45.820Z,6.20
2018-04-02T13:39:12.830Z,5.05
2018-04-02T13:41:39.955Z,5.93
2018-04-02T13:44:07.137Z,6.80
2018-04-02T13:46:34.027Z,7.70
2018-04-02T13:49:00.877Z,7.78
2018-04-02T13:51:27.653Z,7.50
2018-04-02T13:53:54.484Z,6.85
2018-04-02T13:56:21.311Z,7.62
2018-04-02T13:58:48.089Z,4.82
2018-04-02T14:01:14.919Z,8.13
2018-04-02T14:03:42.088Z,7.07
2018-04-02T14:06:08.865Z,6.57
2018-04-02T14:08:35.692Z,6.40
2018-04-02T14:11:02.518Z,7.53
2018-04-02T14:13:29.664Z,7.97
2018-04-02T14:15:56.510Z,7.55
2018-04-02T14:18:23.270Z,6.77
2018-04-02T14:20:50.394Z,10.40
2018-04-02T14:23:17.173Z,10.35
2018-04-02T14:25:44.017Z,7.33
2018-04-02T14:28:10.835Z,7.05
2018-04-02T14:30:37.867Z,7.97
2018-04-02T14:33:04.715Z,8.98
2018-04-02T14:35:31.489Z,5.65
2018-04-02T14:37:58.299Z,6.10
2018-04-02T14:40:25.145Z,7.03
2018-04-02T14:42:51.956Z,6.07
2018-04-02T14:45:19.033Z,9.40
2018-04-02T14:47:46.183Z,8.40
2018-04-02T14:50:12.958Z,8.98
2018-04-02T14:52:39.742Z,5.53
2018-04-02T14:55:06.927Z,7.10
2018-04-02T14:57:33.742Z,6.95
2018-04-02T15:00:00.574Z,7.32
2018-04-02T15:02:27.382Z,9.52
2018-04-02T15:04:54.207Z,9.30
2018-04-02T15:07:20.982Z,7.25
2018-04-02T15:09:47.798Z,5.80
2018-04-02T15:12:14.585Z,6.95
2018-04-02T15:14:41.664Z,10.02
2018-04-02T15:17:08.461Z,8.25
2018-04-02T15:19:35.292Z,9.40
2018-04-02T15:22:02.108Z,6.72
2018-04-02T15:24:28.911Z,7.55
2018-04-02T15:26:55.709Z,9.52
2018-04-02T15:29:22.722Z,9.73
2018-04-02T15:31:49.521Z,12.07
2018-04-02T15:34:16.364Z,10.75
2018-04-02T15:36:43.142Z,12.63
2018-04-02T15:39:10.199Z,11.93
2018-04-02T15:41:37.007Z,12.83
2018-04-02T15:44:04.082Z,12.00
2018-04-02T15:46:30.905Z,12.95
2018-04-02T15:48:57.979Z,13.57
2018-04-02T15:51:24.757Z,10.90
2018-04-02T15:53:51.577Z,12.35
2018-04-02T15:56:18.402Z,13.10
2018-04-02T15:58:45.186Z,14.20
2018-04-02T16:01:12.035Z,12.70
2018-04-02T16:03:38.830Z,16.02
2018-04-02T16:06:05.687Z,12.50
2018-04-02T16:08:32.718Z,11.07
2018-04-02T16:10:59.539Z,11.15
2018-04-02T16:13:26.433Z,12.80
2018-04-02T16:15:53.561Z,8.80
2018-04-02T16:18:20.368Z,9.23
2018-04-02T16:20:47.147Z,11.52
2018-04-02T16:23:14.314Z,10.15
2018-04-02T16:25:41.147Z,14.20
2018-04-02T16:28:07.947Z,10.02
2018-04-02T16:30:34.810Z,9.50
2018-04-02T16:33:01.878Z,11.27
2018-04-02T16:35:28.997Z,14.90
2018-04-02T16:37:55.822Z,8.23
2018-04-02T16:40:22.632Z,11.30
2018-04-02T16:42:49.760Z,9.23
2018-04-02T16:45:17.105Z,13.40
2018-04-02T16:47:43.960Z,10.95
2018-04-02T16:50:11.118Z,11.85
2018-04-02T16:52:37.967Z,9.75
2018-04-02T16:55:04.791Z,11.95
2018-04-02T16:57:31.619Z,10.20
2018-04-02T16:59:58.505Z,11.80
2018-04-02T17:02:25.641Z,10.07
2018-04-02T17:04:52.778Z,13.10
2018-04-02T17:07:19.617Z,8.85
2018-04-02T17:09:46.427Z,6.43
2018-04-02T17:12:13.193Z,6.80
2018-04-02T17:14:40.047Z,8.95
2018-04-02T17:17:06.833Z,7.03
2018-04-02T17:19:33.943Z,7.57
2018-04-02T17:22:00.764Z,8.98
2018-04-02T17:24:27.825Z,6.90
2018-04-02T17:26:54.625Z,7.95
2018-04-02T17:29:21.464Z,4.97
2018-04-02T17:31:48.248Z,4.43
2018-04-02T17:34:15.056Z,5.70
2018-04-02T17:36:41.866Z,5.47
2018-04-02T17:39:08.695Z,10.35
2018-04-02T17:41:35.835Z,9.85
2018-04-02T17:44:02.706Z,5.78
2018-04-02T17:46:29.490Z,5.90
2018-04-02T17:48:56.274Z,5.60
2018-04-02T17:51:23.410Z,6.15
2018-04-02T17:53:50.458Z,7.03
2018-04-02T17:56:17.265Z,6.20
2018-04-02T17:58:44.090Z,6.80
2018-04-02T18:01:10.873Z,6.73
2018-04-02T18:03:37.696Z,7.90
2018-04-02T18:06:04.775Z,6.87
2018-04-02T18:08:31.566Z,8.40
2018-04-02T18:10:58.375Z,8.45
2018-04-02T18:13:25.207Z,7.22
2018-04-02T18:15:52.255Z,9.63
2018-04-02T18:18:19.157Z,9.05
2018-04-02T18:20:45.951Z,7.50
2018-04-02T18:23:12.737Z,7.90
2018-04-02T18:25:39.826Z,7.20
2018-04-02T18:28:06.673Z,6.62
2018-04-02T18:30:33.457Z,7.60
2018-04-02T18:33:00.246Z,6.05
2018-04-02T18:35:27.405Z,7.03
2018-04-02T18:37:54.177Z,6.72
2018-04-02T18:40:21.305Z,6.28
2018-04-02T18:42:48.135Z,9.00
2018-04-02T18:45:15.039Z,7.60
2018-04-02T18:47:42.205Z,7.10
2018-04-02T18:50:09.281Z,5.97
2018-04-02T18:52:36.333Z,6.32
2018-04-02T18:55:03.388Z,7.70
2018-04-02T18:57:30.534Z,7.40
2018-04-02T18:59:57.583Z,6.07
2018-04-02T19:02:24.357Z,8.98
2018-04-02T19:04:51.169Z,7.20
2018-04-02T19:07:18.319Z,9.05
2018-04-02T19:09:45.093Z,6.32
2018-04-02T19:12:11.936Z,6.60
2018-04-02T19:14:38.710Z,7.40
2018-04-02T19:17:05.546Z,7.47
2018-04-02T19:19:32.635Z,6.75
2018-04-02T19:21:59.452Z,6.47
2018-04-02T19:24:26.262Z,5.90
2018-04-02T19:26:53.079Z,7.10
2018-04-02T19:29:20.215Z,4.78
2018-04-02T19:31:46.997Z,7.53
2018-04-02T19:34:13.848Z,6.25
2018-04-02T19:36:40.696Z,7.47
2018-04-02T19:39:07.550Z,8.02
2018-04-02T19:41:34.741Z,6.37
2018-04-02T19:44:01.889Z,7.00
2018-04-02T19:46:28.690Z,8.43
2018-04-02T19:48:55.534Z,6.22
2018-04-02T19:51:22.343Z,6.82
2018-04-02T19:53:49.150Z,6.90
2018-04-02T19:56:16.307Z,7.93
2018-04-02T19:58:43.127Z,7.12
2018-04-02T20:01:09.906Z,11.40
2018-04-02T20:03:36.718Z,7.15
2018-04-02T20:06:03.504Z,5.97
2018-04-02T20:08:30.299Z,6.93
2018-04-02T20:10:57.172Z,8.23
2018-04-02T20:13:23.941Z,7.20
2018-04-02T20:15:51.055Z,7.32
2018-04-02T20:18:17.929Z,7.05
2018-04-02T20:20:45.046Z,8.05
2018-04-02T20:23:12.120Z,7.75
2018-04-02T20:25:39.247Z,5.65
2018-04-02T20:28:06.292Z,8.02
2018-04-02T20:30:33.109Z,8.68
2018-04-02T20:32:59.953Z,8.75
2018-04-02T20:35:27.028Z,7.97
2018-04-02T20:37:53.835Z,7.93
2018-04-02T20:40:20.914Z,7.10
2018-04-02T20:42:47.723Z,6.57
2018-04-02T20:45:14.547Z,7.28
2018-04-02T20:47:41.650Z,6.80
2018-04-02T20:50:08.472Z,6.70
2018-04-02T20:52:35.273Z,8.50
2018-04-02T20:55:02.116Z,6.47
2018-04-02T20:57:29.234Z,7.15
2018-04-02T20:59:56.035Z,9.32
2018-04-02T21:02:22.850Z,6.95
2018-04-02T21:04:49.770Z,7.47
2018-04-02T21:07:16.542Z,7.50
2018-04-02T21:09:43.403Z,6.18
2018-04-02T21:12:10.236Z,5.85
2018-04-02T21:14:37.031Z,6.53
2018-04-02T21:17:04.069Z,7.15
2018-04-02T21:19:30.999Z,7.60
2018-04-02T21:21:57.788Z,7.10
2018-04-02T21:24:24.591Z,8.18
2018-04-02T21:26:51.658Z,7.10
2018-04-02T21:29:18.469Z,12.10
2018-04-02T21:31:45.542Z,7.60
2018-04-02T21:34:12.375Z,8.17
2018-04-02T21:36:39.442Z,8.60
2018-04-02T21:39:06.268Z,10.13
2018-04-02T21:41:33.331Z,9.00
2018-04-02T21:44:00.369Z,7.30
2018-04-02T21:46:27.192Z,8.27
2018-04-02T21:48:53.989Z,9.23
2018-04-02T21:51:20.813Z,9.43
2018-04-02T21:53:47.618Z,10.85
2018-04-02T21:56:14.414Z,9.73
2018-04-02T21:58:41.251Z,10.63
2018-04-02T22:01:08.067Z,9.60
2018-04-02T22:03:34.894Z,12.77
2018-04-02T22:06:01.723Z,9.20
2018-04-02T22:08:28.816Z,10.98
2018-04-02T22:10:55.623Z,9.63
2018-04-02T22:13:22.427Z,10.82
2018-04-02T22:15:49.546Z,11.68
2018-04-02T22:18:16.695Z,12.75
2018-04-02T22:20:43.528Z,12.45
2018-04-02T22:23:10.359Z,12.88
2018-04-02T22:25:37.431Z,13.80
2018-04-02T22:28:04.227Z,14.93
2018-04-02T22:30:31.076Z,12.90
2018-04-02T22:32:57.911Z,11.30
2018-04-02T22:35:24.793Z,13.20
2018-04-02T22:37:51.641Z,13.05
2018-04-02T22:40:18.509Z,16.42
2018-04-02T22:42:45.747Z,14.60
2018-04-02T22:45:12.832Z,13.52
2018-04-02T22:47:39.728Z,12.52
2018-04-02T22:50:06.897Z,15.05
2018-04-02T22:52:33.731Z,14.70
2018-04-02T22:55:00.791Z,14.65
2018-04-02T22:57:27.936Z,14.55
2018-04-02T22:59:55.083Z,16.73
2018-04-02T23:02:21.947Z,14.57
2018-04-02T23:04:48.856Z,14.65
2018-04-02T23:07:15.717Z,14.38
2018-04-02T23:09:42.877Z,15.60
2018-04-02T23:12:10.041Z,15.75
2018-04-02T23:14:36.895Z,17.40
2018-04-02T23:17:03.715Z,15.73
2018-04-02T23:19:30.851Z,15.95
2018-04-02T23:21:57.708Z,15.83
2018-04-02T23:24:24.616Z,17.08
2018-04-02T23:26:51.433Z,16.08
2018-04-02T23:29:18.535Z,16.60
2018-04-02T23:31:45.689Z,16.27
2018-04-02T23:34:12.841Z,19.03
2018-04-02T23:36:39.983Z,18.08
2018-04-02T23:39:06.933Z,18.98
2018-04-02T23:41:34.287Z,19.20
2018-04-02T23:44:01.148Z,18.77
2018-04-02T23:46:28.288Z,18.52
2018-04-02T23:48:55.152Z,18.42
2018-04-02T23:51:22.008Z,18.77
2018-04-02T23:53:48.872Z,20.12
2018-04-02T23:56:15.960Z,20.23
2018-04-02T23:58:42.779Z,20.67
